Time;durP1;ratioP1;P1;durP2;ratioP2;P2;SDS_P1;SDS_P2;PMS_P1;PMS_P2;Temp;Humidity;BMP_temperature;BMP_pressure;BME280_temperature;BME280_humidity;BME280_pressure;Samples;Min_cycle;Max_cycle;Signal;HPM_P1;HPM_P2
2024/01/10 00:01:45;;;;;;;5.82;4.15;;;6.30;72.20;;;;;;4912738;29;20499;-79
2024/01/10 00:04:11;;;;;;;7.07;4.18;;;6.40;72.10;;;;;;4914853;29;20107;-80
2024/01/10 00:06:37;;;;;;;6.57;4.30;;;6.30;71.80;;;;;;4914817;29;20032;-80
2024/01/10 00:09:02;;;;;;;12.18;4.32;;;6.30;71.90;;;;;;4915113;29;20060;-80
2024/01/10 00:11:28;;;;;;;4.45;3.17;;;6.30;71.90;;;;;;4914206;29;20036;-80
2024/01/10 00:13:59;;;;;;;7.63;4.30;;;6.30;72.00;;;;;;4914888;29;20538;-79
2024/01/10 00:16:28;;;;;;;7.70;4.97;;;6.20;72.00;;;;;;4915728;29;20348;-79
2024/01/10 00:18:54;;;;;;;6.57;4.68;;;6.20;72.70;;;;;;4914384;29;20047;-79
2024/01/10 00:21:20;;;;;;;5.10;3.30;;;6.20;72.40;;;;;;4915940;29;20475;-80
2024/01/10 00:23:45;;;;;;;8.93;4.18;;;6.20;72.40;;;;;;4914762;29;20464;-80
2024/01/10 00:26:11;;;;;;;7.05;3.90;;;6.20;72.30;;;;;;4914768;29;20036;-80
2024/01/10 00:28:37;;;;;;;7.15;4.00;;;6.30;72.30;;;;;;4915114;29;20032;-80
2024/01/10 00:31:02;;;;;;;10.30;5.40;;;6.30;72.30;;;;;;4891874;29;20112;-79
2024/01/10 00:33:28;;;;;;;7.03;3.92;;;6.30;72.30;;;;;;4911780;29;20067;-80
2024/01/10 00:35:54;;;;;;;5.32;3.40;;;6.30;72.20;;;;;;4915762;29;20087;-80
2024/01/10 00:38:19;;;;;;;5.85;3.45;;;6.20;72.20;;;;;;4915594;29;20481;-80
2024/01/10 00:40:45;;;;;;;6.75;4.30;;;6.20;72.40;;;;;;4916107;29;20067;-80
2024/01/10 00:43:11;;;;;;;6.75;4.32;;;6.20;72.30;;;;;;4915395;29;20386;-79
2024/01/10 00:45:36;;;;;;;8.95;4.40;;;6.20;72.50;;;;;;4914157;29;20024;-80
2024/01/10 00:48:02;;;;;;;8.60;4.18;;;6.20;72.80;;;;;;4915685;29;20399;-80
2024/01/10 00:50:28;;;;;;;5.72;3.55;;;6.20;72.50;;;;;;4915551;29;20024;-80
2024/01/10 00:52:54;;;;;;;7.03;3.88;;;6.20;72.40;;;;;;4915361;29;20036;-80
2024/01/10 00:55:19;;;;;;;6.28;3.80;;;6.20;72.60;;;;;;4915399;29;20205;-80
2024/01/10 00:57:45;;;;;;;6.05;3.97;;;6.20;72.50;;;;;;4915335;29;20031;-80
2024/01/10 01:00:11;;;;;;;7.90;4.80;;;6.20;72.60;;;;;;4915112;29;20028;-80
2024/01/10 01:02:39;;;;;;;7.53;4.25;;;6.20;72.60;;;;;;4914669;29;20079;-79
2024/01/10 01:05:06;;;;;;;9.05;4.38;;;6.20;72.70;;;;;;4918658;29;20115;-79
2024/01/10 01:07:32;;;;;;;7.85;4.30;;;6.20;72.80;;;;;;4918345;29;20031;-79
2024/01/10 01:09:58;;;;;;;10.00;4.82;;;6.10;72.30;;;;;;4918476;29;20036;-80
2024/01/10 01:12:24;;;;;;;8.15;4.40;;;6.00;72.60;;;;;;4919485;29;20031;-80
2024/01/10 01:14:49;;;;;;;7.05;4.18;;;5.80;72.80;;;;;;4918827;29;20040;-79
2024/01/10 01:17:15;;;;;;;11.80;6.35;;;5.80;73.10;;;;;;4918216;29;20375;-80
2024/01/10 01:19:41;;;;;;;7.43;4.22;;;5.70;72.70;;;;;;4917028;29;20191;-81
2024/01/10 01:22:06;;;;;;;8.35;4.85;;;5.70;73.80;;;;;;4916516;29;20525;-80
2024/01/10 01:24:32;;;;;;;7.60;4.38;;;5.70;73.60;;;;;;4923124;29;20026;-81
2024/01/10 01:26:58;;;;;;;8.07;4.40;;;5.80;73.90;;;;;;4923495;29;20068;-81
2024/01/10 01:29:23;;;;;;;6.68;3.97;;;5.90;73.70;;;;;;4917463;29;20024;-81
2024/01/10 01:31:49;;;;;;;8.27;5.00;;;5.90;74.00;;;;;;4915761;29;20046;-81
2024/01/10 01:34:15;;;;;;;7.30;4.53;;;6.00;73.40;;;;;;4918142;29;20043;-81
2024/01/10 01:36:41;;;;;;;9.48;4.70;;;6.00;73.30;;;;;;4916151;29;20035;-80
2024/01/10 01:39:06;;;;;;;7.30;4.35;;;6.00;73.20;;;;;;4917595;29;20031;-81
2024/01/10 01:41:33;;;;;;;7.00;4.07;;;5.80;73.00;;;;;;4918746;29;20063;-80
2024/01/10 01:43:58;;;;;;;7.13;3.90;;;5.80;73.40;;;;;;4916134;29;20403;-79
2024/01/10 01:46:24;;;;;;;7.00;4.18;;;5.80;73.50;;;;;;4911346;29;20025;-78
2024/01/10 01:48:52;;;;;;;6.63;3.80;;;5.70;73.60;;;;;;4911581;29;20024;-79
2024/01/10 01:51:21;;;;;;;5.82;3.80;;;5.70;73.70;;;;;;4904570;29;20364;-81
2024/01/10 01:53:49;;;;;;;6.78;3.70;;;5.70;73.60;;;;;;4915634;29;20410;-81
2024/01/10 01:56:16;;;;;;;6.68;4.07;;;5.70;73.80;;;;;;4917245;29;20049;-81
2024/01/10 01:58:43;;;;;;;8.00;4.20;;;5.60;73.70;;;;;;4917541;29;20043;-81
2024/01/10 02:01:11;;;;;;;7.78;4.15;;;5.60;74.10;;;;;;4917955;29;20119;-81
2024/01/10 02:03:37;;;;;;;5.97;3.60;;;5.60;74.20;;;;;;4916643;29;20115;-81
2024/01/10 02:06:03;;;;;;;8.07;4.15;;;5.60;74.00;;;;;;4917195;29;20115;-81
2024/01/10 02:08:38;;;;;;;8.80;4.32;;;5.70;74.00;;;;;;4917001;29;20061;-81
2024/01/10 02:11:04;;;;;;;4.93;3.20;;;5.70;73.80;;;;;;4916633;29;20084;-81
2024/01/10 02:13:32;;;;;;;7.32;3.72;;;5.60;73.60;;;;;;4916600;29;20099;-81
2024/01/10 02:15:59;;;;;;;6.90;4.90;;;5.70;73.70;;;;;;4916485;29;20040;-81
2024/01/10 02:18:24;;;;;;;5.30;3.75;;;5.60;73.70;;;;;;4917437;29;20131;-81
2024/01/10 02:20:51;;;;;;;8.40;5.13;;;5.50;73.60;;;;;;4895695;29;20122;-81
2024/01/10 02:23:18;;;;;;;5.90;3.78;;;5.50;73.60;;;;;;4917252;29;20043;-82
2024/01/10 02:25:45;;;;;;;9.30;5.32;;;5.50;73.50;;;;;;4916784;29;20051;-81
2024/01/10 02:28:11;;;;;;;6.72;3.60;;;5.50;73.50;;;;;;4916123;29;20043;-82
2024/01/10 02:30:37;;;;;;;7.00;3.92;;;5.50;73.70;;;;;;4918117;29;20032;-82
2024/01/10 02:33:03;;;;;;;7.82;4.47;;;5.50;73.90;;;;;;4917590;29;20513;-81
2024/01/10 02:35:32;;;;;;;8.38;5.13;;;5.60;73.70;;;;;;4916649;29;20039;-81
2024/01/10 02:37:58;;;;;;;6.63;3.30;;;5.70;73.70;;;;;;4916660;29;20301;-82
2024/01/10 02:40:24;;;;;;;6.00;3.53;;;5.70;73.50;;;;;;4917164;29;20039;-82
2024/01/10 02:42:51;;;;;;;7.97;3.92;;;5.80;73.10;;;;;;4917804;29;20032;-81
2024/01/10 02:45:17;;;;;;;5.70;3.63;;;5.80;73.00;;;;;;4917836;29;20105;-82
2024/01/10 02:47:43;;;;;;;10.13;5.45;;;5.80;72.80;;;;;;4917401;29;20044;-81
2024/01/10 02:50:10;;;;;;;7.07;4.00;;;5.70;73.00;;;;;;4900716;29;20419;-82
2024/01/10 02:52:36;;;;;;;7.85;4.22;;;5.70;72.50;;;;;;4917096;29;20084;-81
2024/01/10 02:55:01;;;;;;;5.50;3.53;;;5.70;72.70;;;;;;4900371;29;20032;-81
2024/01/10 02:57:27;;;;;;;5.40;3.30;;;5.70;72.30;;;;;;4916836;29;20116;-82
2024/01/10 02:59:53;;;;;;;5.25;3.40;;;5.70;72.30;;;;;;4917024;29;20028;-82
2024/01/10 03:02:19;;;;;;;11.75;5.05;;;5.70;72.00;;;;;;4917446;29;20483;-82
2024/01/10 03:04:44;;;;;;;6.57;3.40;;;5.70;71.30;;;;;;4917174;29;20115;-82
2024/01/10 03:07:10;;;;;;;7.68;3.88;;;5.50;71.70;;;;;;4916762;29;20036;-82
2024/01/10 03:09:36;;;;;;;6.35;4.03;;;5.60;72.10;;;;;;4915898;29;20028;-82
2024/01/10 03:12:02;;;;;;;7.38;3.70;;;5.50;72.00;;;;;;4901381;29;20099;-82
2024/01/10 03:14:27;;;;;;;7.03;3.92;;;5.50;72.70;;;;;;4916686;29;20036;-81
2024/01/10 03:16:53;;;;;;;6.28;3.97;;;5.50;72.60;;;;;;4914973;29;20043;-81
2024/01/10 03:19:19;;;;;;;8.52;3.72;;;5.50;72.60;;;;;;4919490;29;20033;-81
2024/01/10 03:21:44;;;;;;;6.75;3.92;;;5.50;72.90;;;;;;4916865;29;20043;-80
2024/01/10 03:24:10;;;;;;;4.82;3.47;;;5.60;73.00;;;;;;4916486;29;20028;-81
2024/01/10 03:26:36;;;;;;;6.05;3.75;;;5.60;72.50;;;;;;4917017;29;20135;-81
2024/01/10 03:29:01;;;;;;;5.57;3.67;;;5.60;72.10;;;;;;4908745;29;20050;-81
2024/01/10 03:31:30;;;;;;;7.03;4.53;;;5.60;72.50;;;;;;4922101;29;20040;-80
2024/01/10 03:33:56;;;;;;;6.82;4.10;;;5.60;72.30;;;;;;4900947;29;20067;-80
2024/01/10 03:36:22;;;;;;;9.50;5.32;;;5.60;72.80;;;;;;4885493;29;20048;-80
2024/01/10 03:38:48;;;;;;;7.10;4.30;;;5.60;71.80;;;;;;4907140;29;20031;-80
2024/01/10 03:41:22;;;;;;;8.82;5.65;;;5.70;72.10;;;;;;4908466;29;20032;-80
2024/01/10 03:43:48;;;;;;;7.47;4.53;;;5.70;71.50;;;;;;4904952;29;20043;-82
2024/01/10 03:46:15;;;;;;;10.30;5.47;;;5.70;72.00;;;;;;4924825;29;20463;-82
2024/01/10 03:48:47;;;;;;;6.15;4.13;;;5.60;71.90;;;;;;4918363;29;20110;-82
2024/01/10 03:51:17;;;;;;;11.02;5.00;;;5.60;71.80;;;;;;4916323;29;20040;-81
2024/01/10 03:53:44;;;;;;;6.43;3.53;;;5.50;71.80;;;;;;4924382;29;20032;-82
2024/01/10 03:56:10;;;;;;;7.38;4.22;;;5.40;72.00;;;;;;4922933;29;20111;-82
2024/01/10 03:58:36;;;;;;;9.77;4.82;;;5.40;72.10;;;;;;4917677;29;20060;-81
2024/01/10 04:01:06;;;;;;;9.73;5.65;;;5.40;72.60;;;;;;4917372;29;20040;-83
2024/01/10 04:03:32;;;;;;;;;;;5.30;71.60;;;;;;4926620;29;20390;-83
2024/01/10 04:05:57;;;;;;;10.43;6.40;;;5.20;72.40;;;;;;4933785;29;19910;-82
2024/01/10 04:08:23;;;;;;;8.70;5.53;;;4.90;72.30;;;;;;4916800;29;20040;-83
2024/01/10 04:10:48;;;;;;;7.95;5.38;;;4.80;73.50;;;;;;4924940;29;20024;-82
2024/01/10 04:13:14;;;;;;;11.80;6.82;;;4.70;74.00;;;;;;4929128;29;20040;-82
2024/01/10 04:15:40;;;;;;;12.18;5.85;;;4.70;73.90;;;;;;4920226;29;20115;-82
2024/01/10 04:18:05;;;;;;;6.70;4.10;;;4.70;73.70;;;;;;4923459;29;20035;-82
2024/01/10 04:20:31;;;;;;;7.00;4.00;;;4.80;73.80;;;;;;4925944;29;20028;-82
2024/01/10 04:22:57;;;;;;;8.40;4.85;;;4.90;73.80;;;;;;4922394;29;20040;-82
2024/01/10 04:25:22;;;;;;;10.10;6.10;;;4.90;73.50;;;;;;4922488;29;20032;-81
2024/01/10 04:27:50;;;;;;;11.48;6.90;;;4.90;73.20;;;;;;4917987;29;20043;-82
2024/01/10 04:30:16;;;;;;;10.48;4.95;;;4.90;73.50;;;;;;4902071;29;20068;-81
2024/01/10 04:32:41;;;;;;;6.00;4.10;;;4.90;73.70;;;;;;4923043;29;20067;-81
2024/01/10 04:35:07;;;;;;;8.45;4.75;;;4.80;73.80;;;;;;4915680;29;20469;-82
2024/01/10 04:37:33;;;;;;;8.32;4.43;;;4.90;73.90;;;;;;4918855;29;20040;-82
2024/01/10 04:39:59;;;;;;;7.20;4.32;;;4.90;74.10;;;;;;4918234;29;20032;-81
2024/01/10 04:42:24;;;;;;;10.95;6.63;;;5.00;74.00;;;;;;4920097;29;20043;-81
2024/01/10 04:44:50;;;;;;;11.45;6.45;;;4.70;73.20;;;;;;4918564;29;20040;-80
2024/01/10 04:47:16;;;;;;;8.48;5.38;;;4.60;73.70;;;;;;4902491;29;20028;-81
2024/01/10 04:49:42;;;;;;;10.77;6.07;;;4.60;74.00;;;;;;4902789;29;20028;-81
2024/01/10 04:52:07;;;;;;;7.10;3.58;;;4.80;74.30;;;;;;4919828;29;20119;-81
2024/01/10 04:54:34;;;;;;;6.97;4.53;;;4.80;73.80;;;;;;4921849;29;20035;-82
2024/01/10 04:56:59;;;;;;;7.05;4.03;;;5.00;74.00;;;;;;4918428;29;20484;-82
2024/01/10 04:59:25;;;;;;;8.05;4.78;;;5.00;73.40;;;;;;4918549;29;20060;-81
2024/01/10 05:01:51;;;;;;;6.80;3.80;;;5.00;72.50;;;;;;4901879;29;20091;-82
2024/01/10 05:04:17;;;;;;;7.53;4.20;;;5.10;73.30;;;;;;4923957;29;20024;-82
2024/01/10 05:06:42;;;;;;;6.43;4.32;;;5.10;73.30;;;;;;4919221;29;20040;-81
2024/01/10 05:09:09;;;;;;;5.43;3.08;;;5.30;73.00;;;;;;4918547;29;20086;-81
2024/01/10 05:11:36;;;;;;;10.65;5.88;;;5.30;72.50;;;;;;4919036;29;20032;-82
2024/01/10 05:14:02;;;;;;;8.55;4.68;;;5.20;70.90;;;;;;4911791;29;20379;-82
2024/01/10 05:16:28;;;;;;;6.50;3.70;;;5.30;72.10;;;;;;4920072;29;20032;-81
2024/01/10 05:18:54;;;;;;;7.50;3.55;;;5.30;71.90;;;;;;4918396;29;20028;-81
2024/01/10 05:21:20;;;;;;;6.90;3.83;;;5.40;71.80;;;;;;4919652;29;20039;-81
2024/01/10 05:23:46;;;;;;;10.85;6.60;;;5.40;71.20;;;;;;4917094;29;20442;-80
2024/01/10 05:26:12;;;;;;;6.00;4.03;;;5.30;71.30;;;;;;4917780;29;20103;-80
2024/01/10 05:28:38;;;;;;;7.05;4.05;;;5.30;71.70;;;;;;4918355;29;20371;-80
2024/01/10 05:31:04;;;;;;;7.35;4.28;;;5.30;71.80;;;;;;4921782;29;20039;-80
2024/01/10 05:33:30;;;;;;;8.82;4.80;;;5.30;71.80;;;;;;4919518;29;20043;-80
2024/01/10 05:35:58;;;;;;;9.13;5.00;;;5.30;71.90;;;;;;4918378;29;20032;-80
2024/01/10 05:38:23;;;;;;;7.70;4.57;;;5.30;71.70;;;;;;4921662;29;20358;-80
2024/01/10 05:40:49;;;;;;;6.63;4.13;;;5.40;71.80;;;;;;4917085;29;20036;-81
2024/01/10 05:43:15;;;;;;;6.90;4.40;;;5.40;71.80;;;;;;4917309;29;20111;-81
2024/01/10 05:45:43;;;;;;;7.90;4.35;;;5.40;71.30;;;;;;4918364;29;20036;-82
2024/01/10 05:48:09;;;;;;;6.43;4.45;;;5.40;71.90;;;;;;4907589;29;20036;-81
2024/01/10 05:50:35;;;;;;;8.98;4.63;;;5.30;71.60;;;;;;4917615;29;20028;-82
2024/01/10 05:53:00;;;;;;;7.50;4.32;;;5.40;71.60;;;;;;4918880;29;20345;-79
2024/01/10 05:55:26;;;;;;;7.95;4.93;;;5.50;71.60;;;;;;4903924;29;20067;-81
2024/01/10 05:57:52;;;;;;;9.85;6.22;;;5.50;71.40;;;;;;4912863;29;20120;-79
2024/01/10 06:00:18;;;;;;;8.80;4.82;;;5.40;72.00;;;;;;4931534;29;20537;-79
2024/01/10 06:02:43;;;;;;;9.20;4.60;;;5.40;72.10;;;;;;4925528;29;20478;-79
2024/01/10 06:05:10;;;;;;;9.73;4.40;;;5.30;72.30;;;;;;4924333;29;20153;-81
2024/01/10 06:07:40;;;;;;;8.60;4.55;;;5.40;72.40;;;;;;4926953;29;20379;-81
2024/01/10 06:10:06;;;;;;;10.88;5.95;;;5.30;72.30;;;;;;4906902;29;20040;-81
2024/01/10 06:12:32;;;;;;;7.47;4.82;;;5.40;72.20;;;;;;4931354;29;20032;-82
2024/01/10 06:14:58;;;;;;;7.07;4.13;;;5.40;72.00;;;;;;4926422;29;20042;-81
2024/01/10 06:17:24;;;;;;;6.25;4.30;;;5.40;71.80;;;;;;4923893;29;20478;-81
2024/01/10 06:19:50;;;;;;;9.25;5.70;;;5.40;72.00;;;;;;4918011;29;20459;-81
2024/01/10 06:22:16;;;;;;;7.40;4.35;;;5.30;71.60;;;;;;4918855;29;20036;-81
2024/01/10 06:24:43;;;;;;;7.72;4.97;;;5.30;72.10;;;;;;4916353;29;20032;-81
2024/01/10 06:27:09;;;;;;;9.40;4.72;;;5.30;72.20;;;;;;4917954;29;20130;-81
2024/01/10 06:29:35;;;;;;;9.43;4.70;;;5.30;72.50;;;;;;4918969;29;20056;-78
2024/01/10 06:32:01;;;;;;;9.75;6.05;;;5.30;72.20;;;;;;4917457;29;20067;-78
2024/01/10 06:34:27;;;;;;;6.90;4.30;;;5.30;72.00;;;;;;4917739;29;20020;-78
2024/01/10 06:36:53;;;;;;;9.50;4.90;;;5.40;72.00;;;;;;4917595;29;20033;-79
2024/01/10 06:39:19;;;;;;;9.38;5.25;;;5.40;72.60;;;;;;4918509;29;20075;-79
2024/01/10 06:41:49;;;;;;;7.38;4.45;;;5.30;71.20;;;;;;4917925;29;20417;-78
2024/01/10 06:44:17;;;;;;;7.67;4.83;;;5.40;72.00;;;;;;4917582;29;20035;-78
2024/01/10 06:46:43;;;;;;;9.85;6.10;;;5.40;71.70;;;;;;4919237;29;20031;-78
2024/01/10 06:49:10;;;;;;;9.27;5.68;;;5.40;71.30;;;;;;4918068;29;20043;-79
2024/01/10 06:51:36;;;;;;;7.15;3.80;;;5.40;71.30;;;;;;4916550;29;20472;-79
2024/01/10 06:54:05;;;;;;;8.80;4.60;;;5.40;71.50;;;;;;4917197;29;20071;-79
2024/01/10 06:56:31;;;;;;;6.95;4.65;;;5.40;71.40;;;;;;4918957;29;20043;-78
2024/01/10 06:58:57;;;;;;;7.47;4.07;;;5.40;71.60;;;;;;4923713;29;20071;-78
2024/01/10 07:01:23;;;;;;;8.68;5.22;;;5.40;71.60;;;;;;4916384;29;20059;-79
2024/01/10 07:03:49;;;;;;;6.97;4.53;;;5.30;71.60;;;;;;4919508;29;20032;-79
2024/01/10 07:06:15;;;;;;;8.20;5.03;;;5.30;71.90;;;;;;4917317;29;20110;-79
2024/01/10 07:08:44;;;;;;;6.70;4.40;;;5.40;72.00;;;;;;4918301;29;20178;-80
2024/01/10 07:11:13;;;;;;;7.22;4.80;;;5.40;71.60;;;;;;4919539;29;20028;-79
2024/01/10 07:13:40;;;;;;;8.13;4.65;;;5.50;71.30;;;;;;4931630;29;20035;-84
2024/01/10 07:16:06;;;;;;;8.27;4.90;;;5.50;72.10;;;;;;4919401;29;20024;-83
2024/01/10 07:18:32;;;;;;;7.00;4.22;;;5.50;71.70;;;;;;4918005;29;20032;-83
2024/01/10 07:20:58;;;;;;;10.10;6.55;;;5.60;71.40;;;;;;4916825;29;20100;-83
2024/01/10 07:23:24;;;;;;;12.68;7.60;;;5.50;70.30;;;;;;4900114;29;20024;-82
2024/01/10 07:25:50;;;;;;;9.00;4.70;;;5.40;70.50;;;;;;4917874;29;20108;-84
2024/01/10 07:28:16;;;;;;;13.50;7.47;;;5.40;71.10;;;;;;4922940;29;20036;-85
2024/01/10 07:30:42;;;;;;;8.55;5.47;;;5.20;69.90;;;;;;4923796;29;20034;-86
2024/01/10 07:33:08;;;;;;;9.35;5.22;;;5.30;71.00;;;;;;4926943;29;20126;-86
2024/01/10 07:35:33;;;;;;;10.85;5.93;;;5.30;71.00;;;;;;4925647;29;20083;-84
2024/01/10 07:37:59;;;;;;;22.70;4.72;;;5.30;71.00;;;;;;4934894;29;20035;-85
2024/01/10 07:40:25;;;;;;;7.65;4.63;;;5.30;72.50;;;;;;4919988;29;20115;-84
2024/01/10 07:42:50;;;;;;;9.05;5.38;;;5.50;73.70;;;;;;4917870;29;20051;-84
2024/01/10 07:45:16;;;;;;;7.00;4.55;;;5.60;71.80;;;;;;4917534;29;20099;-84
2024/01/10 07:47:42;;;;;;;8.82;4.30;;;5.70;71.50;;;;;;4899968;29;20080;-84
2024/01/10 07:50:09;;;;;;;9.82;4.95;;;5.80;71.40;;;;;;4919703;29;20090;-85
2024/01/10 07:52:35;;;;;;;9.45;5.30;;;5.70;70.70;;;;;;4922795;29;20406;-84
2024/01/10 07:55:04;;;;;;;7.82;4.72;;;5.70;70.70;;;;;;4916542;29;20115;-83
2024/01/10 07:57:30;;;;;;;10.90;5.00;;;5.70;70.50;;;;;;4928265;29;20035;-83
2024/01/10 07:59:56;;;;;;;7.07;4.35;;;5.80;69.90;;;;;;4927678;29;20118;-84
2024/01/10 08:02:22;;;;;;;11.75;4.93;;;5.80;70.30;;;;;;4926213;29;20072;-84
2024/01/10 08:04:48;;;;;;;8.90;4.78;;;5.80;69.60;;;;;;4916752;29;20035;-84
2024/01/10 08:07:13;;;;;;;6.90;4.53;;;5.80;69.70;;;;;;4900073;29;20062;-84
2024/01/10 08:09:39;;;;;;;7.38;4.15;;;5.80;69.60;;;;;;4924473;29;20031;-84
2024/01/10 08:12:05;;;;;;;6.70;4.15;;;5.80;69.40;;;;;;4938606;29;20024;-84
2024/01/10 08:14:31;;;;;;;11.90;4.82;;;5.80;69.40;;;;;;4923140;29;20043;-84
2024/01/10 08:16:58;;;;;;;9.38;5.32;;;5.70;68.50;;;;;;4921504;29;20394;-84
2024/01/10 08:19:27;;;;;;;8.88;5.82;;;5.60;68.80;;;;;;4904390;29;20035;-84
2024/01/10 08:21:53;;;;;;;8.67;4.77;;;5.60;68.90;;;;;;4919540;29;20079;-83
2024/01/10 08:24:20;;;;;;;9.93;6.45;;;5.70;69.00;;;;;;4936752;29;20028;-84
2024/01/10 08:26:51;;;;;;;10.27;5.38;;;5.60;67.80;;;;;;4923063;29;20031;-84
2024/01/10 08:29:18;;;;;;;12.93;7.80;;;5.60;68.50;;;;;;4928139;29;20075;-83
2024/01/10 08:31:44;;;;;;;8.20;5.30;;;5.50;67.70;;;;;;4930703;29;20028;-85
2024/01/10 08:34:10;;;;;;;9.52;5.00;;;5.50;68.30;;;;;;4925880;29;20043;-84
2024/01/10 08:36:35;;;;;;;8.75;4.63;;;5.60;68.90;;;;;;4927568;29;20055;-84
2024/01/10 08:39:03;;;;;;;8.63;5.22;;;5.80;68.60;;;;;;4903630;29;20036;-84
2024/01/10 08:41:29;;;;;;;7.95;5.47;;;5.80;67.60;;;;;;4920652;29;20478;-85
2024/01/10 08:43:54;;;;;;;12.40;6.55;;;5.90;67.80;;;;;;4921014;29;20102;-84
2024/01/10 08:46:20;;;;;;;9.45;5.78;;;5.90;67.10;;;;;;4921541;29;20066;-84
2024/01/10 08:48:47;;;;;;;7.70;4.63;;;5.90;67.80;;;;;;4929322;29;20020;-84
2024/01/10 08:51:16;;;;;;;8.23;4.85;;;6.00;68.20;;;;;;4930608;29;20475;-84
2024/01/10 08:53:42;;;;;;;8.60;5.07;;;6.10;68.20;;;;;;4919464;29;20032;-84
2024/01/10 08:56:07;;;;;;;6.80;4.70;;;6.20;67.70;;;;;;4933008;29;20382;-84
2024/01/10 08:58:33;;;;;;;7.43;4.35;;;6.20;67.30;;;;;;4938362;29;20028;-84
2024/01/10 09:00:59;;;;;;;9.70;5.22;;;6.30;67.90;;;;;;4938939;29;20028;-84
2024/01/10 09:03:25;;;;;;;9.90;5.35;;;6.20;67.30;;;;;;4937836;29;20027;-84
2024/01/10 09:05:50;;;;;;;9.90;4.70;;;6.30;67.20;;;;;;4920010;29;20072;-83
2024/01/10 09:08:16;;;;;;;8.40;5.55;;;6.30;66.90;;;;;;4919492;29;20439;-84
2024/01/10 09:10:42;;;;;;;9.02;5.35;;;6.40;67.30;;;;;;4920063;29;20083;-85
2024/01/10 09:13:07;;;;;;;8.80;5.25;;;6.40;67.20;;;;;;4920037;29;20039;-85
2024/01/10 09:15:33;;;;;;;8.38;4.80;;;6.50;66.90;;;;;;4919822;29;20039;-84
2024/01/10 09:17:58;;;;;;;13.40;7.13;;;6.50;66.50;;;;;;4920504;29;20028;-85
2024/01/10 09:20:24;;;;;;;12.25;6.82;;;6.40;65.30;;;;;;4920209;29;20123;-83
2024/01/10 09:22:50;;;;;;;12.05;6.18;;;6.40;65.00;;;;;;4920142;29;20028;-84
2024/01/10 09:25:16;;;;;;;9.10;6.13;;;6.40;65.80;;;;;;4920396;29;20382;-84
2024/01/10 09:27:43;;;;;;;9.25;5.32;;;6.40;66.70;;;;;;4920195;29;20493;-85
2024/01/10 09:30:09;;;;;;;7.25;4.63;;;6.40;65.80;;;;;;4919963;29;20039;-84
2024/01/10 09:32:35;;;;;;;7.78;4.53;;;6.40;66.00;;;;;;4902612;29;20052;-83
2024/01/10 09:35:01;;;;;;;9.35;4.90;;;6.40;66.10;;;;;;4919234;29;20041;-82
2024/01/10 09:37:27;;;;;;;8.98;5.15;;;6.50;66.00;;;;;;4919501;29;20024;-83
2024/01/10 09:39:53;;;;;;;8.40;5.00;;;6.60;66.30;;;;;;4919535;29;20467;-83
2024/01/10 09:42:23;;;;;;;9.10;5.85;;;6.70;66.20;;;;;;4919243;29;20036;-83
2024/01/10 09:44:49;;;;;;;8.77;5.07;;;6.80;66.10;;;;;;4902463;29;20032;-82
2024/01/10 09:47:16;;;;;;;12.05;6.95;;;6.80;65.90;;;;;;4919442;29;20030;-83
2024/01/10 09:49:44;;;;;;;10.13;5.47;;;6.90;65.10;;;;;;4919127;29;20113;-84
2024/01/10 09:52:11;;;;;;;7.38;4.47;;;7.00;65.80;;;;;;4917992;29;20024;-85
2024/01/10 09:54:40;;;;;;;8.93;4.78;;;7.10;65.70;;;;;;4918804;29;20024;-87
2024/01/10 09:57:06;;;;;;;8.65;5.75;;;7.20;66.00;;;;;;4919439;29;20024;-86
2024/01/10 09:59:32;;;;;;;13.50;6.57;;;7.20;64.70;;;;;;4919240;29;20474;-85
2024/01/10 10:02:01;;;;;;;9.40;5.80;;;7.10;63.90;;;;;;4918928;29;20024;-85
2024/01/10 10:04:28;;;;;;;10.27;5.10;;;7.10;64.20;;;;;;4919667;29;20036;-84
2024/01/10 10:07:01;;;;;;;8.40;4.55;;;7.10;65.30;;;;;;4919625;29;20046;-85
2024/01/10 10:09:28;;;;;;;10.73;6.25;;;7.20;65.00;;;;;;4918858;29;20043;-86
2024/01/10 10:11:55;;;;;;;8.90;6.15;;;7.40;64.30;;;;;;4903856;29;20375;-86
2024/01/10 10:14:20;;;;;;;9.80;5.72;;;7.50;64.40;;;;;;4918920;29;20116;-85
2024/01/10 10:16:46;;;;;;;8.63;5.40;;;7.40;63.40;;;;;;4918246;29;20583;-85
2024/01/10 10:19:13;;;;;;;9.38;5.28;;;7.50;64.70;;;;;;4919700;29;20055;-81
2024/01/10 10:21:39;;;;;;;9.50;5.22;;;7.60;64.30;;;;;;4918661;29;20028;-85
2024/01/10 10:24:05;;;;;;;7.55;4.43;;;7.80;64.20;;;;;;4919508;29;20538;-85
2024/01/10 10:26:34;;;;;;;13.75;7.50;;;7.90;63.60;;;;;;4901392;29;20069;-84
2024/01/10 10:29:01;;;;;;;9.70;6.07;;;7.90;62.80;;;;;;4919463;29;20043;-86
2024/01/10 10:31:26;;;;;;;9.52;5.00;;;8.00;63.10;;;;;;4926864;29;20114;-85
2024/01/10 10:33:52;;;;;;;8.32;5.40;;;8.00;63.70;;;;;;4927849;29;20083;-85
2024/01/10 10:36:21;;;;;;;9.60;6.28;;;8.10;63.60;;;;;;4933956;29;20079;-84
2024/01/10 10:38:50;;;;;;;10.48;5.25;;;8.00;62.00;;;;;;4922438;29;20428;-84
2024/01/10 10:41:18;;;;;;;11.98;7.45;;;8.30;62.90;;;;;;4918946;29;20111;-85
2024/01/10 10:43:44;;;;;;;13.25;8.00;;;8.30;62.10;;;;;;4905210;29;20027;-85
2024/01/10 10:46:12;;;;;;;8.90;5.90;;;8.40;61.70;;;;;;4918479;29;20483;-83
2024/01/10 10:48:38;;;;;;;10.25;6.25;;;8.40;62.30;;;;;;4920227;29;20059;-83
2024/01/10 10:51:11;;;;;;;10.77;5.80;;;8.50;62.40;;;;;;4919406;29;20054;-86
2024/01/10 10:53:38;;;;;;;9.02;5.70;;;8.50;61.60;;;;;;4920592;29;20367;-85
2024/01/10 10:56:07;;;;;;;7.28;4.50;;;8.60;62.70;;;;;;4918075;29;20039;-85
2024/01/10 10:58:39;;;;;;;6.60;4.97;;;8.70;63.00;;;;;;4918526;29;20036;-85
2024/01/10 11:01:06;;;;;;;9.00;5.53;;;8.80;61.70;;;;;;4934276;29;20035;-86
2024/01/10 11:03:34;;;;;;;13.30;7.07;;;9.00;61.90;;;;;;4918714;29;20028;-86
2024/01/10 11:06:02;;;;;;;10.35;5.75;;;8.90;60.30;;;;;;4917859;29;20032;-85
2024/01/10 11:08:33;;;;;;;9.73;5.07;;;8.80;60.50;;;;;;4918265;29;20063;-83
2024/01/10 11:11:01;;;;;;;9.40;5.55;;;9.00;61.50;;;;;;4901499;29;20039;-84
2024/01/10 11:13:54;;;;;;;10.10;5.53;;;9.20;61.10;;;;;;4917721;29;20036;-86
2024/01/10 11:16:43;;;;;;;8.70;5.18;;;9.40;60.50;;;;;;4912615;29;20036;-85
2024/01/10 11:19:33;;;;;;;7.32;4.60;;;9.60;60.20;;;;;;4918220;29;20475;-85
2024/01/10 11:22:18;;;;;;;7.05;4.47;;;9.50;58.90;;;;;;4903308;29;20376;-85
2024/01/10 11:24:47;;;;;;;9.25;5.10;;;9.70;60.10;;;;;;4917206;29;20032;-86
2024/01/10 11:27:14;;;;;;;7.35;4.85;;;9.70;59.40;;;;;;4912077;29;20028;-85
2024/01/10 11:29:41;;;;;;;6.03;4.10;;;9.80;59.70;;;;;;4917984;29;20035;-85
2024/01/10 11:32:16;;;;;;;7.68;4.05;;;10.00;60.40;;;;;;4918485;29;20040;-86
2024/01/10 11:34:58;;;;;;;7.65;4.60;;;10.10;59.30;;;;;;4901466;29;20059;-85
2024/01/10 11:37:27;;;;;;;;;;;10.30;60.40;;;;;;4927014;29;20139;-85
2024/01/10 11:39:53;;;;;;;8.53;4.43;;;10.40;59.50;;;;;;4918250;29;20373;-85
2024/01/10 11:42:23;;;;;;;8.90;5.18;;;10.70;59.70;;;;;;4917693;29;20095;-85
2024/01/10 11:44:51;;;;;;;10.07;5.18;;;10.90;58.30;;;;;;4917906;29;20039;-86
2024/01/10 11:47:18;;;;;;;6.85;4.30;;;11.20;59.20;;;;;;4917099;29;20059;-85
2024/01/10 11:49:54;;;;;;;7.07;4.97;;;11.50;56.70;;;;;;4915001;29;20020;-87
2024/01/10 11:52:22;;;;;;;7.80;4.85;;;11.70;56.90;;;;;;4926011;29;20062;-86
2024/01/10 11:54:50;;;;;;;8.85;4.85;;;12.40;57.50;;;;;;4914019;29;20554;-86
2024/01/10 11:57:20;;;;;;;9.00;5.50;;;13.10;55.10;;;;;;4908204;29;20083;-86
2024/01/10 11:59:46;;;;;;;7.88;4.60;;;13.80;54.10;;;;;;4986358;23;20050;-85
2024/01/10 12:02:16;;;;;;;9.73;5.80;;;14.30;53.80;;;;;;4998477;28;20034;-85
2024/01/10 12:04:43;;;;;;;9.40;6.35;;;15.10;52.00;;;;;;5005230;28;20262;-86
2024/01/10 12:07:08;;;;;;;7.60;5.55;;;15.60;49.70;;;;;;5021401;28;20438;-85
2024/01/10 12:09:35;;;;;;;6.95;4.78;;;16.00;49.00;;;;;;5016413;28;20018;-85
2024/01/10 12:12:02;;;;;;;9.07;5.32;;;16.20;48.30;;;;;;5012382;28;20029;-85
2024/01/10 12:14:28;;;;;;;8.98;5.68;;;16.40;47.50;;;;;;5003718;28;20531;-85
2024/01/10 12:16:54;;;;;;;8.95;5.32;;;16.50;47.20;;;;;;5017914;28;20069;-85
2024/01/10 12:19:20;;;;;;;7.50;5.30;;;16.80;47.50;;;;;;5025934;28;20076;-86
2024/01/10 12:21:47;;;;;;;8.73;5.32;;;17.00;47.20;;;;;;5025042;28;20025;-85
2024/01/10 12:24:13;;;;;;;8.27;5.63;;;17.10;46.70;;;;;;5020298;28;20037;-85
2024/01/10 12:26:46;;;;;;;8.95;5.35;;;16.90;46.30;;;;;;5013587;28;20026;-84
2024/01/10 12:29:12;;;;;;;9.52;5.13;;;16.70;46.40;;;;;;5027187;28;20484;-86
2024/01/10 12:31:39;;;;;;;7.65;5.15;;;16.80;47.20;;;;;;4998104;28;20056;-85
2024/01/10 12:34:08;;;;;;;8.52;5.28;;;17.00;46.30;;;;;;5016307;28;20053;-86
2024/01/10 12:36:34;;;;;;;8.57;5.70;;;17.10;45.50;;;;;;5020550;28;20040;-85
2024/01/10 12:39:00;;;;;;;8.25;5.82;;;17.10;45.60;;;;;;5020208;28;20030;-85
2024/01/10 12:41:26;;;;;;;8.70;5.82;;;16.80;45.70;;;;;;5004677;28;20112;-86
2024/01/10 12:43:55;;;;;;;8.55;5.80;;;16.60;45.90;;;;;;5029941;28;20487;-86
2024/01/10 12:46:23;;;;;;;8.68;5.82;;;16.40;45.20;;;;;;5019870;28;20380;-85
2024/01/10 12:49:05;;;;;;;8.05;5.57;;;15.90;46.30;;;;;;5020341;28;20100;-86
2024/01/10 12:51:31;;;;;;;8.07;5.53;;;15.60;46.30;;;;;;5003722;28;20113;-86
2024/01/10 12:54:01;;;;;;;9.98;6.18;;;15.40;47.20;;;;;;5016280;28;20028;-87